createdAt,value
2023-06-19T00:00:14.051Z,64.30
2023-06-19T00:02:38.736Z,64.00
2023-06-19T00:05:02.052Z,64.10
2023-06-19T00:07:25.317Z,64.10
2023-06-19T00:09:48.516Z,64.60
2023-06-19T00:12:12.509Z,64.70
2023-06-19T00:14:37.046Z,65.00
2023-06-19T00:17:02.351Z,65.00
2023-06-19T00:19:25.686Z,65.60
2023-06-19T00:21:48.845Z,66.10
2023-06-19T00:24:12.544Z,66.10
2023-06-19T00:26:35.788Z,66.20
2023-06-19T00:28:59.452Z,65.60
2023-06-19T00:31:22.725Z,66.30
2023-06-19T00:33:48.407Z,66.90
2023-06-19T00:36:12.710Z,66.90
2023-06-19T00:38:36.145Z,68.00
2023-06-19T00:40:59.678Z,67.80
2023-06-19T00:43:23.088Z,67.80
2023-06-19T00:45:46.342Z,67.90
2023-06-19T00:48:11.161Z,68.40
2023-06-19T00:50:35.884Z,69.20
2023-06-19T00:52:59.782Z,69.20
2023-06-19T00:55:24.307Z,69.30
2023-06-19T00:57:48.235Z,69.20
2023-06-19T01:00:13.626Z,68.80
2023-06-19T01:02:37.523Z,69.70
2023-06-19T01:05:00.799Z,70.00
2023-06-19T01:07:35.370Z,69.90
2023-06-19T01:10:05.488Z,69.90
2023-06-19T01:12:35.674Z,69.70
2023-06-19T01:15:02.988Z,70.20
2023-06-19T01:17:27.956Z,70.70
2023-06-19T01:19:51.608Z,69.80
2023-06-19T01:22:27.782Z,70.70
2023-06-19T01:24:50.990Z,70.70
2023-06-19T01:27:14.361Z,70.90
2023-06-19T01:29:37.692Z,71.00
2023-06-19T01:32:07.264Z,71.30
2023-06-19T01:34:32.806Z,71.20
2023-06-19T01:36:58.094Z,71.80
2023-06-19T01:39:23.322Z,72.20
2023-06-19T01:41:48.220Z,72.40
2023-06-19T01:44:11.974Z,72.20
2023-06-19T01:46:35.280Z,73.40
2023-06-19T01:49:00.830Z,73.50
2023-06-19T01:51:24.125Z,73.30
2023-06-19T01:53:47.291Z,73.20
2023-06-19T01:56:12.061Z,73.00
2023-06-19T01:58:35.348Z,73.40
2023-06-19T02:00:58.718Z,73.10
2023-06-19T02:03:22.135Z,73.50
2023-06-19T02:05:45.571Z,73.00
2023-06-19T02:08:08.920Z,72.80
2023-06-19T02:10:33.840Z,73.30
2023-06-19T02:12:58.770Z,73.00
2023-06-19T02:15:22.012Z,72.90
2023-06-19T02:17:45.276Z,72.60
2023-06-19T02:20:12.406Z,71.90
2023-06-19T02:22:35.579Z,71.60
2023-06-19T02:24:58.787Z,72.00
2023-06-19T02:27:22.022Z,72.00
2023-06-19T02:29:46.553Z,72.70
2023-06-19T02:32:10.261Z,72.20
2023-06-19T02:34:34.660Z,71.90
2023-06-19T02:36:58.050Z,72.20
2023-06-19T02:39:21.271Z,71.90
2023-06-19T02:41:47.107Z,71.50
2023-06-19T02:44:10.302Z,70.40
2023-06-19T02:46:34.940Z,70.20
2023-06-19T02:48:58.535Z,68.90
2023-06-19T02:51:21.903Z,67.90
2023-06-19T02:53:45.145Z,66.80
2023-06-19T02:56:08.717Z,66.30
2023-06-19T02:58:31.974Z,66.80
2023-06-19T03:00:55.640Z,67.10
2023-06-19T03:03:20.367Z,67.30
2023-06-19T03:05:43.715Z,67.70
2023-06-19T03:08:08.108Z,67.80
2023-06-19T03:10:31.735Z,67.80
2023-06-19T03:12:54.987Z,68.00
2023-06-19T03:15:18.688Z,68.40
2023-06-19T03:17:45.837Z,68.70
2023-06-19T03:20:13.350Z,69.00
2023-06-19T03:22:42.849Z,69.10
2023-06-19T03:25:10.211Z,69.40
2023-06-19T03:27:33.424Z,69.50
2023-06-19T03:29:56.701Z,69.80
2023-06-19T03:32:32.425Z,69.80
2023-06-19T03:34:56.488Z,70.30
2023-06-19T03:37:21.926Z,70.60
2023-06-19T03:39:46.028Z,70.80
2023-06-19T03:42:10.706Z,70.90
2023-06-19T03:44:34.122Z,71.40
2023-06-19T03:46:57.831Z,71.50
2023-06-19T03:49:21.110Z,72.00
2023-06-19T03:51:47.295Z,72.30
2023-06-19T03:54:11.976Z,72.50
2023-06-19T03:56:36.062Z,72.80
2023-06-19T03:58:59.255Z,72.90
2023-06-19T04:01:22.548Z,73.50
2023-06-19T04:03:46.092Z,73.60
2023-06-19T04:06:09.714Z,73.90
2023-06-19T04:08:36.343Z,74.10
2023-06-19T04:11:00.993Z,74.40
2023-06-19T04:13:27.101Z,74.60
2023-06-19T04:15:51.491Z,74.70
2023-06-19T04:18:15.163Z,74.60
2023-06-19T04:20:38.396Z,74.90
2023-06-19T04:23:01.667Z,75.10
2023-06-19T04:25:25.470Z,75.30
2023-06-19T04:27:50.402Z,75.30
2023-06-19T04:30:14.167Z,75.60
2023-06-19T04:32:37.700Z,75.50
2023-06-19T04:35:01.101Z,75.60
2023-06-19T04:37:24.263Z,75.60
2023-06-19T04:39:47.513Z,76.00
2023-06-19T04:42:10.820Z,75.80
2023-06-19T04:44:35.619Z,75.90
2023-06-19T04:47:02.135Z,75.90
2023-06-19T04:49:25.378Z,75.90
2023-06-19T04:51:49.356Z,76.00
2023-06-19T04:54:12.642Z,76.10
2023-06-19T04:56:35.868Z,76.40
2023-06-19T04:59:00.681Z,76.50
2023-06-19T05:01:28.918Z,76.50
2023-06-19T05:03:52.127Z,76.20
2023-06-19T05:06:15.317Z,76.20
2023-06-19T05:08:38.607Z,76.40
2023-06-19T05:11:01.991Z,76.30
2023-06-19T05:13:25.193Z,75.90
2023-06-19T05:15:49.595Z,76.50
2023-06-19T05:18:14.569Z,76.60
2023-06-19T05:20:37.901Z,76.60
2023-06-19T05:23:01.086Z,76.80
2023-06-19T05:25:24.356Z,76.40
2023-06-19T05:27:47.533Z,76.50
2023-06-19T05:30:12.529Z,76.30
2023-06-19T05:32:36.135Z,76.70
2023-06-19T05:35:00.967Z,76.50
2023-06-19T05:37:24.449Z,76.10
2023-06-19T05:39:47.850Z,75.90
2023-06-19T05:42:11.134Z,76.10
2023-06-19T05:44:34.360Z,75.80
2023-06-19T05:46:57.583Z,76.30
2023-06-19T05:49:20.840Z,75.70
2023-06-19T05:51:45.500Z,76.30
2023-06-19T05:54:08.774Z,76.30
2023-06-19T05:56:32.003Z,76.30
2023-06-19T05:58:55.432Z,76.10
2023-06-19T06:01:19.021Z,76.20
2023-06-19T06:03:42.292Z,75.90
2023-06-19T06:06:06.061Z,75.80
2023-06-19T06:08:30.843Z,75.90
2023-06-19T06:10:53.995Z,75.90
2023-06-19T06:13:17.191Z,76.10
2023-06-19T06:15:40.388Z,75.90
2023-06-19T06:18:04.925Z,76.10
2023-06-19T06:20:28.713Z,76.20
2023-06-19T06:22:52.060Z,76.10
2023-06-19T06:25:16.733Z,76.20
2023-06-19T06:27:39.962Z,76.20
2023-06-19T06:30:03.286Z,76.90
2023-06-19T06:32:27.348Z,77.60
2023-06-19T06:34:50.487Z,77.90
2023-06-19T06:37:13.832Z,78.10
2023-06-19T06:39:37.126Z,78.80
2023-06-19T06:42:01.840Z,78.60
2023-06-19T06:44:25.072Z,78.70
2023-06-19T06:46:48.468Z,78.50
2023-06-19T06:49:12.039Z,79.70
2023-06-19T06:51:35.328Z,80.60
2023-06-19T06:53:58.872Z,81.50
2023-06-19T06:56:22.431Z,81.20
2023-06-19T06:58:47.963Z,80.80
2023-06-19T07:01:11.490Z,81.40
2023-06-19T07:03:36.231Z,80.80
2023-06-19T07:05:59.670Z,80.20
2023-06-19T07:08:22.828Z,79.60
2023-06-19T07:10:46.093Z,79.90
2023-06-19T07:13:09.377Z,80.50
2023-06-19T07:15:33.987Z,79.70
2023-06-19T07:17:58.078Z,79.50
2023-06-19T07:20:21.934Z,79.20
2023-06-19T07:22:46.091Z,78.70
2023-06-19T07:25:12.133Z,79.60
2023-06-19T07:27:35.399Z,80.30
2023-06-19T07:29:58.858Z,81.20
2023-06-19T07:32:23.567Z,81.40
2023-06-19T07:34:46.790Z,81.70
2023-06-19T07:37:10.206Z,80.90
2023-06-19T07:39:33.415Z,81.30
2023-06-19T07:41:56.612Z,81.30
2023-06-19T07:44:22.014Z,80.80
2023-06-19T07:46:45.302Z,80.50
2023-06-19T07:49:09.943Z,79.70
2023-06-19T07:51:33.217Z,79.00
2023-06-19T07:53:56.471Z,77.10
2023-06-19T07:56:19.642Z,77.20
2023-06-19T07:58:42.925Z,77.40
2023-06-19T08:01:06.201Z,77.30
2023-06-19T08:03:29.555Z,77.10
2023-06-19T08:05:54.275Z,75.30
2023-06-19T08:08:17.924Z,75.30
2023-06-19T08:10:42.066Z,74.20
2023-06-19T08:13:05.345Z,74.90
2023-06-19T08:15:28.560Z,75.50
2023-06-19T08:17:52.153Z,74.80
2023-06-19T08:20:15.538Z,73.20
2023-06-19T08:22:40.155Z,72.70
2023-06-19T08:25:03.506Z,70.70
2023-06-19T08:27:26.735Z,71.40
2023-06-19T08:29:50.274Z,71.40
2023-06-19T08:32:13.466Z,70.90
2023-06-19T08:34:36.671Z,71.10
2023-06-19T08:36:59.891Z,70.30
2023-06-19T08:39:25.377Z,70.30
2023-06-19T08:41:49.376Z,70.10
2023-06-19T08:44:12.569Z,69.80
2023-06-19T08:46:38.100Z,69.60
2023-06-19T08:49:01.604Z,69.00
2023-06-19T08:51:27.629Z,68.30
2023-06-19T08:53:57.340Z,67.20
2023-06-19T08:56:22.059Z,68.70
2023-06-19T08:58:45.255Z,66.70
2023-06-19T09:01:08.464Z,67.80
2023-06-19T09:03:31.830Z,66.20
2023-06-19T09:05:55.214Z,65.70
2023-06-19T09:08:19.925Z,66.50
2023-06-19T09:10:44.125Z,65.80
2023-06-19T09:13:09.724Z,63.60
2023-06-19T09:15:36.845Z,65.30
2023-06-19T09:18:10.406Z,67.30
2023-06-19T09:20:35.358Z,65.10
2023-06-19T09:22:59.139Z,63.10
2023-06-19T09:25:22.846Z,64.20
2023-06-19T09:27:46.010Z,62.60
2023-06-19T09:30:18.475Z,62.80
2023-06-19T09:32:43.300Z,62.60
2023-06-19T09:35:07.307Z,63.60
2023-06-19T09:37:32.199Z,63.10
2023-06-19T09:39:58.808Z,61.70
2023-06-19T09:42:30.857Z,61.30
2023-06-19T09:44:57.889Z,61.10
2023-06-19T09:47:25.664Z,61.50
2023-06-19T09:49:53.299Z,62.00
2023-06-19T09:52:17.511Z,60.30
2023-06-19T09:54:44.699Z,58.90
2023-06-19T09:57:09.070Z,59.20
2023-06-19T09:59:33.004Z,61.50
2023-06-19T10:01:56.257Z,57.90
2023-06-19T10:04:21.243Z,58.70
2023-06-19T10:06:48.437Z,58.40
2023-06-19T10:09:12.326Z,56.70
2023-06-19T10:11:48.411Z,59.20
2023-06-19T10:14:11.609Z,55.60
2023-06-19T10:16:34.802Z,56.80
2023-06-19T10:18:59.816Z,56.60
2023-06-19T10:21:24.578Z,57.40
2023-06-19T10:23:56.809Z,58.00
2023-06-19T10:26:22.276Z,56.60
2023-06-19T10:28:50.115Z,53.40
2023-06-19T10:31:13.416Z,53.00
2023-06-19T10:33:41.274Z,53.60
2023-06-19T10:36:16.621Z,55.20
2023-06-19T10:38:41.449Z,53.10
2023-06-19T10:41:04.645Z,53.60
2023-06-19T10:43:32.913Z,54.60
2023-06-19T10:45:56.435Z,54.10
2023-06-19T10:48:22.512Z,53.50
2023-06-19T10:50:45.730Z,51.70
2023-06-19T10:53:09.442Z,54.00
2023-06-19T10:55:36.276Z,52.30
2023-06-19T10:57:59.845Z,53.00
2023-06-19T11:00:28.767Z,55.00
2023-06-19T11:02:52.324Z,52.20
2023-06-19T11:05:16.914Z,51.10
2023-06-19T11:07:40.444Z,50.80
2023-06-19T11:10:04.683Z,51.30
2023-06-19T11:12:29.302Z,52.00
2023-06-19T11:14:52.807Z,54.10
2023-06-19T11:17:16.275Z,52.90
2023-06-19T11:19:43.069Z,49.70
2023-06-19T11:22:08.863Z,50.80
2023-06-19T11:24:32.347Z,50.60
2023-06-19T11:26:56.057Z,49.00
2023-06-19T11:29:24.064Z,49.00
2023-06-19T11:31:48.180Z,48.50
2023-06-19T11:34:11.528Z,47.70
2023-06-19T11:36:34.820Z,47.40
2023-06-19T11:38:59.004Z,47.60
2023-06-19T11:41:29.804Z,49.60
2023-06-19T11:44:01.505Z,52.80
2023-06-19T11:46:31.809Z,50.30
2023-06-19T11:49:07.035Z,49.10
2023-06-19T11:51:31.251Z,51.20
2023-06-19T11:53:55.390Z,50.90
2023-06-19T11:56:18.627Z,49.80
2023-06-19T11:58:41.924Z,50.20
2023-06-19T12:01:05.156Z,48.30
2023-06-19T12:03:29.928Z,50.30
2023-06-19T12:05:53.281Z,45.80
2023-06-19T12:08:16.923Z,47.80
2023-06-19T12:10:40.181Z,46.50
2023-06-19T12:13:03.655Z,46.10
2023-06-19T12:15:27.431Z,46.30
2023-06-19T12:17:50.870Z,47.70
2023-06-19T12:20:15.743Z,46.40
2023-06-19T12:22:38.987Z,48.40
2023-06-19T12:25:02.441Z,46.70
2023-06-19T12:27:25.605Z,49.20
2023-06-19T12:29:48.873Z,48.00
2023-06-19T12:32:12.071Z,48.00
2023-06-19T12:34:35.257Z,47.10
2023-06-19T12:37:00.206Z,46.60
2023-06-19T12:39:23.571Z,49.00
2023-06-19T12:41:47.634Z,48.70
2023-06-19T12:44:12.328Z,47.90
2023-06-19T12:46:35.767Z,47.80
2023-06-19T12:48:59.108Z,50.30
2023-06-19T12:51:22.269Z,48.90
2023-06-19T12:53:46.875Z,47.40
2023-06-19T12:56:14.150Z,47.40
2023-06-19T12:58:37.640Z,50.30
2023-06-19T13:01:00.899Z,46.20
2023-06-19T13:03:24.406Z,45.80
2023-06-19T13:05:48.623Z,44.80
2023-06-19T13:08:11.835Z,44.10
2023-06-19T13:10:36.430Z,46.70
2023-06-19T13:12:59.667Z,42.80
2023-06-19T13:15:22.984Z,43.20
2023-06-19T13:17:46.625Z,44.00
2023-06-19T13:20:10.873Z,44.30
2023-06-19T13:22:59.000Z,42.30
2023-06-19T13:25:22.533Z,43.60
2023-06-19T13:27:47.234Z,44.90
2023-06-19T13:30:11.959Z,44.60
2023-06-19T13:32:35.323Z,42.70
2023-06-19T13:34:58.527Z,42.60
2023-06-19T13:37:22.103Z,42.90
2023-06-19T13:39:45.590Z,42.20
2023-06-19T13:42:09.508Z,43.60
2023-06-19T13:44:34.146Z,42.30
2023-06-19T13:46:57.403Z,42.30
2023-06-19T13:49:20.636Z,43.50
2023-06-19T13:51:45.242Z,41.90
2023-06-19T13:54:08.895Z,43.10
2023-06-19T13:56:32.184Z,44.30
2023-06-19T13:58:55.448Z,47.40
2023-06-19T14:01:20.072Z,45.00
2023-06-19T14:03:43.773Z,43.00
2023-06-19T14:06:07.342Z,45.30
2023-06-19T14:08:30.859Z,43.20
2023-06-19T14:10:54.213Z,43.50
2023-06-19T14:13:17.582Z,41.30
2023-06-19T14:15:41.134Z,42.70
2023-06-19T14:18:05.903Z,42.70
2023-06-19T14:20:29.094Z,43.80
2023-06-19T14:22:52.451Z,43.40
2023-06-19T14:25:15.782Z,44.30
2023-06-19T14:27:38.976Z,43.50
2023-06-19T14:30:02.220Z,42.80
2023-06-19T14:32:25.968Z,43.00
2023-06-19T14:34:50.657Z,41.30
2023-06-19T14:37:13.909Z,43.30
2023-06-19T14:39:37.051Z,44.20
2023-06-19T14:42:00.196Z,43.00
2023-06-19T14:44:23.355Z,43.20
2023-06-19T14:46:46.603Z,45.00
2023-06-19T14:49:13.877Z,44.80
2023-06-19T14:51:38.700Z,44.10
2023-06-19T14:54:02.254Z,41.50
2023-06-19T14:56:25.620Z,43.20
2023-06-19T14:58:48.838Z,40.90
2023-06-19T15:01:12.553Z,42.50
2023-06-19T15:03:35.893Z,42.50
2023-06-19T15:05:59.301Z,42.80
2023-06-19T15:08:25.075Z,43.60
2023-06-19T15:10:48.462Z,43.20
2023-06-19T15:13:11.620Z,42.20
2023-06-19T15:15:34.882Z,45.00
2023-06-19T15:17:58.704Z,41.90
2023-06-19T15:20:22.353Z,43.10
2023-06-19T15:22:45.811Z,43.10
2023-06-19T15:25:11.204Z,44.10
2023-06-19T15:27:34.699Z,43.10
2023-06-19T15:29:58.266Z,43.40
2023-06-19T15:32:21.543Z,42.30
2023-06-19T15:34:44.708Z,45.60
2023-06-19T15:37:08.019Z,39.60
2023-06-19T15:39:31.251Z,39.20
2023-06-19T15:41:55.888Z,40.30
2023-06-19T15:44:19.081Z,41.50
2023-06-19T15:46:42.503Z,40.60
2023-06-19T15:49:05.729Z,41.60
2023-06-19T15:51:28.921Z,44.70
2023-06-19T15:53:52.089Z,42.60
2023-06-19T15:56:15.277Z,40.40
2023-06-19T15:58:40.415Z,41.10
2023-06-19T16:01:04.053Z,43.60
2023-06-19T16:03:29.581Z,43.00
2023-06-19T16:08:19.838Z,39.70
2023-06-19T16:10:43.167Z,43.60
2023-06-19T16:13:06.388Z,41.70
2023-06-19T16:15:32.709Z,40.90
2023-06-19T16:17:56.355Z,41.20
2023-06-19T16:20:19.613Z,40.90
2023-06-19T16:22:42.751Z,39.50
2023-06-19T16:25:09.995Z,40.10
2023-06-19T16:27:34.582Z,40.60
2023-06-19T16:29:57.826Z,40.40
2023-06-19T16:32:22.560Z,41.60
2023-06-19T16:34:45.876Z,40.10
2023-06-19T16:37:09.106Z,42.30
2023-06-19T16:39:32.390Z,43.80
2023-06-19T16:41:55.664Z,44.00
2023-06-19T16:44:19.428Z,42.10
2023-06-19T16:46:42.641Z,42.70
2023-06-19T16:49:07.473Z,42.20
2023-06-19T16:51:30.708Z,43.90
2023-06-19T16:53:54.120Z,46.40
2023-06-19T16:56:17.293Z,45.50
2023-06-19T16:58:40.444Z,44.10
2023-06-19T17:01:03.816Z,42.60
2023-06-19T17:03:27.091Z,44.90
2023-06-19T17:05:51.736Z,44.60
2023-06-19T17:08:15.157Z,43.20
2023-06-19T17:10:38.340Z,43.40
2023-06-19T17:13:01.517Z,44.50
2023-06-19T17:15:24.858Z,44.90
2023-06-19T17:17:48.086Z,42.50
2023-06-19T17:20:13.361Z,45.10
2023-06-19T17:22:37.980Z,44.40
2023-06-19T17:25:01.143Z,44.80
2023-06-19T17:27:24.335Z,44.00
2023-06-19T17:29:47.578Z,44.20
2023-06-19T17:32:10.693Z,46.70
2023-06-19T17:34:34.515Z,44.30
2023-06-19T17:36:57.717Z,45.80
2023-06-19T17:39:22.375Z,47.40
2023-06-19T17:41:45.558Z,48.00
2023-06-19T17:44:08.927Z,48.10
2023-06-19T17:46:32.426Z,46.30
2023-06-19T17:48:55.752Z,48.20
2023-06-19T17:51:19.473Z,50.50
2023-06-19T17:53:42.721Z,48.10
2023-06-19T17:56:07.346Z,45.30
2023-06-19T17:58:30.601Z,48.70
2023-06-19T18:00:53.845Z,46.80
2023-06-19T18:03:17.238Z,47.60
2023-06-19T18:05:40.474Z,47.30
2023-06-19T18:08:03.722Z,50.60
2023-06-19T18:10:27.030Z,47.40
2023-06-19T18:12:51.979Z,49.40
2023-06-19T18:15:15.153Z,47.70
2023-06-19T18:17:38.361Z,47.60
2023-06-19T18:20:01.706Z,47.40
2023-06-19T18:22:24.946Z,51.80
2023-06-19T18:24:48.314Z,48.80
2023-06-19T18:27:11.575Z,49.30
2023-06-19T18:29:36.398Z,50.20
2023-06-19T18:31:59.805Z,54.20
2023-06-19T18:34:23.111Z,51.10
2023-06-19T18:36:46.384Z,49.20
2023-06-19T18:39:09.618Z,51.80
2023-06-19T18:41:33.372Z,49.60
2023-06-19T18:43:56.573Z,54.50
2023-06-19T18:46:21.147Z,53.80
2023-06-19T18:48:45.543Z,51.90
2023-06-19T18:51:08.689Z,53.40
2023-06-19T18:53:32.044Z,52.10
2023-06-19T18:55:55.574Z,51.30
2023-06-19T18:58:19.871Z,53.30
2023-06-19T19:00:43.080Z,51.70
2023-06-19T19:03:08.478Z,53.20
2023-06-19T19:05:33.726Z,53.70
2023-06-19T19:07:57.762Z,51.60
2023-06-19T19:10:20.906Z,52.90
2023-06-19T19:12:44.288Z,52.20
2023-06-19T19:15:09.037Z,52.30
2023-06-19T19:17:32.471Z,51.40
2023-06-19T19:19:57.015Z,51.10
2023-06-19T19:22:20.191Z,53.20
2023-06-19T19:24:43.567Z,52.50
2023-06-19T19:27:08.146Z,52.00
2023-06-19T19:29:31.302Z,53.00
2023-06-19T19:31:54.585Z,54.20
2023-06-19T19:34:21.696Z,53.80
2023-06-19T19:36:47.849Z,54.10
2023-06-19T19:39:10.987Z,54.80
2023-06-19T19:41:34.178Z,54.40
2023-06-19T19:43:57.303Z,54.90
2023-06-19T19:46:20.640Z,54.80
2023-06-19T19:48:44.120Z,55.70
2023-06-19T19:51:07.485Z,56.50
2023-06-19T19:53:31.987Z,56.30
2023-06-19T19:55:55.267Z,57.20
2023-06-19T19:58:18.693Z,58.90
2023-06-19T20:00:45.328Z,57.30
2023-06-19T20:03:08.727Z,57.30
2023-06-19T20:05:32.106Z,56.90
2023-06-19T20:07:55.285Z,57.00
2023-06-19T20:10:19.905Z,56.10
2023-06-19T20:12:43.455Z,57.40
2023-06-19T20:15:08.771Z,58.10
2023-06-19T20:17:32.085Z,58.20
2023-06-19T20:19:55.272Z,57.00
2023-06-19T20:22:18.653Z,55.20
2023-06-19T20:24:41.854Z,57.30
2023-06-19T20:27:07.727Z,61.50
2023-06-19T20:29:30.987Z,58.80
2023-06-19T20:31:54.164Z,57.90
2023-06-19T20:34:17.361Z,58.20
2023-06-19T20:36:40.603Z,60.20
2023-06-19T20:39:06.329Z,58.80
2023-06-19T20:41:29.483Z,58.00
2023-06-19T20:43:54.166Z,58.90
2023-06-19T20:46:17.548Z,59.40
2023-06-19T20:48:40.754Z,60.30
2023-06-19T20:51:03.935Z,58.80
2023-06-19T20:53:27.706Z,59.40
2023-06-19T20:55:50.925Z,60.70
2023-06-19T20:58:14.260Z,60.60
2023-06-19T21:00:38.774Z,63.20
2023-06-19T21:03:04.129Z,58.60
2023-06-19T21:05:27.515Z,59.90
2023-06-19T21:07:52.590Z,58.40
2023-06-19T21:10:15.770Z,59.10
2023-06-19T21:12:38.962Z,58.80
2023-06-19T21:15:02.219Z,57.60
2023-06-19T21:17:26.781Z,58.30
2023-06-19T21:19:49.996Z,58.60
2023-06-19T21:22:13.330Z,57.80
2023-06-19T21:24:38.502Z,58.90
2023-06-19T21:27:02.450Z,59.40
2023-06-19T21:29:25.650Z,59.00
2023-06-19T21:31:48.865Z,58.40
2023-06-19T21:34:13.625Z,59.50
2023-06-19T21:36:37.256Z,58.50
2023-06-19T21:39:00.481Z,59.60
2023-06-19T21:41:23.672Z,58.90
2023-06-19T21:43:48.326Z,57.90
2023-06-19T21:46:11.552Z,58.40
2023-06-19T21:48:35.156Z,59.00
2023-06-19T21:50:59.686Z,60.00
2023-06-19T21:53:23.068Z,60.60
2023-06-19T21:55:46.304Z,59.60
2023-06-19T21:58:09.991Z,58.90
2023-06-19T22:00:33.250Z,59.60
2023-06-19T22:02:56.567Z,60.00
2023-06-19T22:05:19.922Z,59.20
2023-06-19T22:07:44.571Z,59.90
2023-06-19T22:10:09.962Z,59.90
2023-06-19T22:12:33.381Z,60.10
2023-06-19T22:14:56.552Z,59.30
2023-06-19T22:17:20.895Z,58.80
2023-06-19T22:19:44.345Z,59.40
2023-06-19T22:22:08.256Z,60.90
2023-06-19T22:24:35.333Z,59.90
2023-06-19T22:26:58.642Z,60.10
2023-06-19T22:29:21.864Z,60.00
2023-06-19T22:31:45.099Z,60.90
2023-06-19T22:34:08.321Z,61.00
2023-06-19T22:36:31.532Z,60.00
2023-06-19T22:38:54.780Z,60.80
2023-06-19T22:41:19.322Z,59.80
2023-06-19T22:43:42.597Z,59.30
2023-06-19T22:46:05.818Z,59.40
2023-06-19T22:48:29.287Z,60.20
2023-06-19T22:50:53.596Z,59.40
2023-06-19T22:53:16.899Z,59.80
2023-06-19T22:55:40.864Z,60.20
2023-06-19T22:58:05.421Z,60.90
2023-06-19T23:00:28.767Z,60.20
2023-06-19T23:02:52.612Z,60.00
2023-06-19T23:05:16.068Z,60.40
2023-06-19T23:07:40.308Z,60.60
2023-06-19T23:10:04.805Z,60.50
2023-06-19T23:12:28.277Z,60.60
2023-06-19T23:14:52.934Z,60.90
2023-06-19T23:17:16.195Z,60.00
2023-06-19T23:19:41.978Z,60.20
2023-06-19T23:22:05.624Z,60.20
2023-06-19T23:24:29.325Z,60.00
2023-06-19T23:26:52.600Z,60.80
2023-06-19T23:29:15.821Z,60.50
2023-06-19T23:31:41.959Z,60.70
2023-06-19T23:34:05.657Z,60.90
2023-06-19T23:36:30.013Z,60.70
2023-06-19T23:38:53.216Z,60.70
2023-06-19T23:41:16.522Z,60.30
2023-06-19T23:43:39.840Z,61.50
2023-06-19T23:46:03.980Z,60.60
2023-06-19T23:48:28.580Z,60.50
2023-06-19T23:50:51.768Z,60.50
2023-06-19T23:53:15.050Z,60.20
2023-06-19T23:55:38.255Z,60.80
2023-06-19T23:58:01.778Z,60.30
